createdAt,value
2019-02-05T00:00:01.532Z,17.82
2019-02-05T00:01:01.603Z,17.82
2019-02-05T00:02:01.964Z,17.81
2019-02-05T00:03:01.897Z,17.82
2019-02-05T00:04:01.869Z,17.81
2019-02-05T00:05:03.400Z,17.8
2019-02-05T00:06:01.513Z,17.8
2019-02-05T00:07:02.043Z,17.78
2019-02-05T00:08:01.735Z,17.8
2019-02-05T00:09:01.850Z,17.78
2019-02-05T00:10:02.008Z,17.78
2019-02-05T00:11:01.528Z,17.8
2019-02-05T00:12:01.969Z,17.77
2019-02-05T00:13:03.662Z,17.77
2019-02-05T00:14:01.469Z,17.76
2019-02-05T00:15:01.552Z,17.76
2019-02-05T00:16:01.864Z,17.76
2019-02-05T00:17:01.499Z,17.77
2019-02-05T00:18:01.802Z,17.76
2019-02-05T00:19:01.737Z,17.76
2019-02-05T00:20:01.595Z,17.76
2019-02-05T00:21:02.351Z,17.74
2019-02-05T00:22:02.029Z,17.74
2019-02-05T00:23:01.540Z,17.74
2019-02-05T00:24:01.720Z,17.73
2019-02-05T00:25:01.809Z,17.73
2019-02-05T00:26:06.855Z,17.74
2019-02-05T00:27:01.506Z,17.72
2019-02-05T00:28:02.158Z,17.73
2019-02-05T00:29:01.515Z,17.69
2019-02-05T00:30:01.988Z,17.69
2019-02-05T00:31:01.690Z,17.72
2019-02-05T00:32:02.172Z,17.68
2019-02-05T00:33:01.903Z,17.7
2019-02-05T00:34:02.187Z,17.72
2019-02-05T00:35:01.874Z,17.68
2019-02-05T00:36:02.799Z,17.67
2019-02-05T00:37:01.938Z,17.67
2019-02-05T00:38:01.523Z,17.67
2019-02-05T00:39:01.537Z,17.66
2019-02-05T00:40:02.048Z,17.68
2019-02-05T00:41:01.614Z,17.66
2019-02-05T00:42:01.864Z,17.65
2019-02-05T00:43:01.507Z,17.65
2019-02-05T00:44:02.856Z,17.65
2019-02-05T00:45:01.715Z,17.64
2019-02-05T00:46:01.723Z,17.63
2019-02-05T00:47:02.090Z,17.64
2019-02-05T00:48:01.891Z,17.65
2019-02-05T00:49:01.563Z,17.64
2019-02-05T00:50:01.957Z,17.62
2019-02-05T00:51:02.340Z,17.63
2019-02-05T00:52:03.120Z,17.63
2019-02-05T00:53:01.814Z,17.61
2019-02-05T00:54:02.352Z,17.62
2019-02-05T00:55:01.733Z,17.61
2019-02-05T00:56:01.547Z,17.62
2019-02-05T00:57:01.724Z,17.62
2019-02-05T00:58:01.555Z,17.62
2019-02-05T00:59:01.560Z,17.61
2019-02-05T01:00:01.827Z,17.6
2019-02-05T01:01:01.645Z,17.59
2019-02-05T01:02:01.784Z,17.59
2019-02-05T01:03:02.058Z,17.59
2019-02-05T01:04:02.049Z,17.59
2019-02-05T01:05:01.908Z,17.58
2019-02-05T01:06:02.681Z,17.58
2019-02-05T01:07:03.126Z,17.58
2019-02-05T01:08:01.727Z,17.56
2019-02-05T01:09:01.527Z,17.55
2019-02-05T01:10:01.942Z,17.55
2019-02-05T01:11:02.002Z,17.54
2019-02-05T01:12:01.589Z,17.53
2019-02-05T01:13:01.889Z,17.54
2019-02-05T01:14:02.056Z,17.54
2019-02-05T01:15:03.186Z,17.54
2019-02-05T01:16:01.595Z,17.52
2019-02-05T01:17:01.894Z,17.53
2019-02-05T01:18:01.838Z,17.52
2019-02-05T01:19:01.789Z,17.51
2019-02-05T01:20:01.705Z,17.53
2019-02-05T01:21:01.845Z,17.52
2019-02-05T01:22:01.936Z,17.5
2019-02-05T01:23:03.444Z,17.52
2019-02-05T01:24:01.966Z,17.51
2019-02-05T01:25:01.955Z,17.51
2019-02-05T01:26:01.492Z,17.49
2019-02-05T01:27:01.995Z,17.5
2019-02-05T01:28:01.566Z,17.49
2019-02-05T01:29:01.418Z,17.49
2019-02-05T01:30:02.244Z,17.49
2019-02-05T01:31:03.502Z,17.48
2019-02-05T01:32:01.766Z,17.49
2019-02-05T01:33:01.485Z,17.49
2019-02-05T01:34:01.986Z,17.48
2019-02-05T01:35:01.686Z,17.47
2019-02-05T01:36:02.188Z,17.48
2019-02-05T01:37:01.865Z,17.46
2019-02-05T01:38:01.537Z,17.48
2019-02-05T01:39:01.562Z,17.45
2019-02-05T01:40:01.499Z,17.45
2019-02-05T01:41:02.504Z,17.45
2019-02-05T01:42:03.184Z,17.45
2019-02-05T01:43:02.477Z,17.45
2019-02-05T01:44:01.880Z,17.45
2019-02-05T01:45:02.527Z,17.43
2019-02-05T01:46:02.278Z,17.43
2019-02-05T01:47:01.694Z,17.41
2019-02-05T01:48:01.855Z,17.41
2019-02-05T01:49:01.416Z,17.43
2019-02-05T01:50:01.566Z,17.4
2019-02-05T01:51:02.358Z,17.39
2019-02-05T01:52:01.730Z,17.41
2019-02-05T01:53:01.567Z,17.4
2019-02-05T01:54:03.159Z,17.4
2019-02-05T01:55:01.876Z,17.39
2019-02-05T01:56:01.535Z,17.39
2019-02-05T01:57:01.922Z,17.4
2019-02-05T01:58:02.005Z,17.4
2019-02-05T01:59:01.683Z,17.39
2019-02-05T02:00:01.814Z,17.38
2019-02-05T02:01:01.824Z,17.38
2019-02-05T02:02:03.109Z,17.37
2019-02-05T02:03:01.935Z,17.37
2019-02-05T02:04:01.440Z,17.39
2019-02-05T02:05:01.609Z,17.37
2019-02-05T02:06:01.978Z,17.37
2019-02-05T02:07:01.619Z,17.35
2019-02-05T02:08:01.805Z,17.36
2019-02-05T02:09:02.442Z,17.37
2019-02-05T02:10:01.546Z,17.34
2019-02-05T02:11:01.945Z,17.35
2019-02-05T02:12:01.813Z,17.36
2019-02-05T02:13:02.182Z,17.35
2019-02-05T02:14:01.712Z,17.35
2019-02-05T02:15:01.825Z,17.33
2019-02-05T02:16:01.899Z,17.34
2019-02-05T02:17:03.010Z,17.32
2019-02-05T02:18:02.162Z,17.33
2019-02-05T02:19:01.868Z,17.31
2019-02-05T02:20:02.117Z,17.33
2019-02-05T02:21:01.758Z,17.32
2019-02-05T02:22:01.463Z,17.33
2019-02-05T02:23:01.464Z,17.32
2019-02-05T02:24:01.533Z,17.31
2019-02-05T02:25:03.066Z,17.32
2019-02-05T02:26:01.681Z,17.32
2019-02-05T02:27:01.366Z,17.3
2019-02-05T02:28:01.519Z,17.3
2019-02-05T02:29:02.199Z,17.31
2019-02-05T02:30:01.698Z,17.32
2019-02-05T02:31:01.557Z,17.31
2019-02-05T02:32:02.238Z,17.3
2019-02-05T02:33:01.952Z,17.29
2019-02-05T02:34:01.803Z,17.29
2019-02-05T02:35:02.115Z,17.29
2019-02-05T02:36:01.553Z,17.29
2019-02-05T02:37:01.589Z,17.25
2019-02-05T02:38:01.573Z,17.25
2019-02-05T02:39:01.805Z,17.28
2019-02-05T02:40:03.381Z,17.29
2019-02-05T02:41:01.767Z,17.26
2019-02-05T02:42:01.909Z,17.26
2019-02-05T02:43:01.881Z,17.24
2019-02-05T02:44:01.410Z,17.25
2019-02-05T02:45:01.901Z,17.23
2019-02-05T02:46:01.876Z,17.26
2019-02-05T02:47:01.448Z,17.24
2019-02-05T02:48:03.027Z,17.23
2019-02-05T02:49:01.653Z,17.23
2019-02-05T02:50:01.504Z,17.23
2019-02-05T02:51:01.657Z,17.22
2019-02-05T02:52:02.069Z,17.24
2019-02-05T02:53:01.813Z,17.23
2019-02-05T02:54:01.920Z,17.22
2019-02-05T02:55:01.488Z,17.22
2019-02-05T02:56:03.287Z,17.2
2019-02-05T02:57:05.325Z,17.21
2019-02-05T02:58:01.880Z,17.22
2019-02-05T02:59:01.862Z,17.21
2019-02-05T03:00:01.636Z,17.21
2019-02-05T03:01:01.698Z,17.22
2019-02-05T03:02:01.463Z,17.21
2019-02-05T03:03:02.726Z,17.2
2019-02-05T03:04:02.047Z,17.19
2019-02-05T03:05:01.658Z,17.2
2019-02-05T03:06:02.008Z,17.19
2019-02-05T03:07:02.197Z,17.2
2019-02-05T03:08:01.888Z,17.18
2019-02-05T03:09:02.492Z,17.19
2019-02-05T03:10:01.911Z,17.17
2019-02-05T03:11:02.204Z,17.17
2019-02-05T03:12:01.499Z,17.19
2019-02-05T03:13:02.392Z,17.15
2019-02-05T03:14:01.511Z,17.16
2019-02-05T03:15:02.019Z,17.16
2019-02-05T03:16:01.491Z,17.17
2019-02-05T03:17:01.602Z,17.16
2019-02-05T03:18:03.241Z,17.16
2019-02-05T03:19:01.799Z,17.16
2019-02-05T03:20:01.627Z,17.17
2019-02-05T03:21:01.718Z,17.15
2019-02-05T03:22:01.449Z,17.17
2019-02-05T03:23:02.052Z,17.15
2019-02-05T03:24:02.078Z,17.16
2019-02-05T03:25:03.189Z,17.14
2019-02-05T03:26:02.101Z,17.14
2019-02-05T03:27:01.650Z,17.11
2019-02-05T03:28:01.353Z,17.13
2019-02-05T03:29:01.913Z,17.1
2019-02-05T03:30:01.923Z,17.13
2019-02-05T03:31:01.704Z,17.11
2019-02-05T03:32:03.034Z,17.11
2019-02-05T03:33:02.076Z,17.11
2019-02-05T03:34:01.756Z,17.09
2019-02-05T03:35:01.623Z,17.11
2019-02-05T03:36:01.739Z,17.11
2019-02-05T03:37:01.564Z,17.09
2019-02-05T03:38:01.520Z,17.1
2019-02-05T03:39:01.601Z,17.09
2019-02-05T03:40:01.379Z,17.1
2019-02-05T03:41:01.825Z,17.09
2019-02-05T03:42:01.861Z,17.1
2019-02-05T03:43:01.422Z,17.08
2019-02-05T03:44:01.834Z,17.09
2019-02-05T03:45:01.441Z,17.09
2019-02-05T03:46:01.502Z,17.09
2019-02-05T03:47:03.142Z,17.08
2019-02-05T03:48:02.214Z,17.07
2019-02-05T03:49:01.398Z,17.08
2019-02-05T03:50:01.772Z,17.06
2019-02-05T03:51:02.049Z,17.07
2019-02-05T03:52:01.406Z,17.07
2019-02-05T03:53:01.749Z,17.06
2019-02-05T03:54:03.191Z,17.06
2019-02-05T03:55:01.862Z,17.06
2019-02-05T03:56:01.566Z,17.05
2019-02-05T03:57:02.165Z,17.05
2019-02-05T03:58:01.508Z,17.04
2019-02-05T03:59:01.563Z,17.07
2019-02-05T04:00:01.423Z,17.04
2019-02-05T04:01:01.448Z,17.04
2019-02-05T04:02:03.760Z,17.04
2019-02-05T04:03:02.264Z,17.03
2019-02-05T04:04:01.516Z,17.05
2019-02-05T04:05:02.024Z,17.04
2019-02-05T04:06:01.943Z,17.04
2019-02-05T04:07:01.790Z,17.02
2019-02-05T04:08:01.662Z,17.02
2019-02-05T04:09:01.535Z,17.03
2019-02-05T04:10:01.865Z,17.03
2019-02-05T04:11:01.692Z,17.02
2019-02-05T04:12:02.091Z,17.01
2019-02-05T04:13:01.949Z,17.03
2019-02-05T04:14:02.058Z,17.02
2019-02-05T04:15:01.516Z,17.02
2019-02-05T04:16:01.921Z,17.01
2019-02-05T04:17:02.947Z,17.01
2019-02-05T04:18:01.790Z,17
2019-02-05T04:19:01.956Z,17.01
2019-02-05T04:20:01.860Z,17
2019-02-05T04:21:01.501Z,17.01
2019-02-05T04:22:01.901Z,17
2019-02-05T04:23:02.261Z,17
2019-02-05T04:24:01.652Z,16.99
2019-02-05T04:25:03.884Z,16.98
2019-02-05T04:26:01.792Z,16.99
2019-02-05T04:27:01.478Z,16.98
2019-02-05T04:28:01.545Z,16.96
2019-02-05T04:29:02.238Z,16.98
2019-02-05T04:30:01.766Z,16.96
2019-02-05T04:31:01.386Z,16.99
2019-02-05T04:32:02.046Z,16.96
2019-02-05T04:33:01.914Z,16.96
2019-02-05T04:34:02.488Z,16.98
2019-02-05T04:35:01.789Z,16.95
2019-02-05T04:36:02.048Z,16.95
2019-02-05T04:37:02.637Z,16.95
2019-02-05T04:38:01.841Z,16.94
2019-02-05T04:39:01.905Z,16.95
2019-02-05T04:40:02.806Z,16.93
2019-02-05T04:41:01.802Z,16.95
2019-02-05T04:42:02.044Z,16.93
2019-02-05T04:43:01.674Z,16.95
2019-02-05T04:44:01.539Z,16.94
2019-02-05T04:45:01.420Z,16.94
2019-02-05T04:46:01.493Z,16.95
2019-02-05T04:47:03.327Z,16.94
2019-02-05T04:48:03.066Z,16.95
2019-02-05T04:49:01.847Z,16.93
2019-02-05T04:50:01.467Z,16.95
2019-02-05T04:51:01.558Z,16.94
2019-02-05T04:52:01.901Z,16.98
2019-02-05T04:53:01.394Z,16.98
2019-02-05T04:54:01.668Z,16.95
2019-02-05T04:55:01.577Z,16.99
2019-02-05T04:56:01.852Z,16.96
2019-02-05T04:57:01.848Z,16.98
2019-02-05T04:58:02.108Z,17
2019-02-05T04:59:03.352Z,17.01
2019-02-05T05:00:01.668Z,17
2019-02-05T05:01:01.393Z,17.02
2019-02-05T05:02:01.564Z,17.02
2019-02-05T05:03:02.972Z,17.02
2019-02-05T05:04:01.603Z,17.04
2019-02-05T05:05:01.408Z,17.05
2019-02-05T05:06:02.112Z,17.05
2019-02-05T05:07:01.463Z,17.05
2019-02-05T05:08:01.470Z,17.07
2019-02-05T05:09:02.067Z,17.1
2019-02-05T05:10:01.555Z,17.11
2019-02-05T05:11:02.820Z,17.11
2019-02-05T05:12:01.793Z,17.14
2019-02-05T05:13:01.445Z,17.14
2019-02-05T05:14:01.975Z,17.17
2019-02-05T05:15:01.819Z,17.17
2019-02-05T05:16:01.529Z,17.19
2019-02-05T05:17:01.391Z,17.2
2019-02-05T05:18:02.978Z,17.23
2019-02-05T05:19:01.537Z,17.23
2019-02-05T05:20:01.593Z,17.23
2019-02-05T05:21:01.875Z,17.26
2019-02-05T05:22:01.510Z,17.3
2019-02-05T05:23:01.462Z,17.29
2019-02-05T05:24:01.619Z,17.31
2019-02-05T05:25:01.618Z,17.34
2019-02-05T05:26:01.615Z,17.36
2019-02-05T05:27:01.873Z,17.37
2019-02-05T05:28:10.763Z,17.4
2019-02-05T05:29:01.696Z,17.4
2019-02-05T05:30:01.588Z,17.43
2019-02-05T05:31:02.063Z,17.43
2019-02-05T05:32:01.599Z,17.45
2019-02-05T05:33:03.285Z,17.47
2019-02-05T05:34:01.369Z,17.47
2019-02-05T05:35:01.914Z,17.5
2019-02-05T05:36:01.667Z,17.5
2019-02-05T05:37:01.484Z,17.52
2019-02-05T05:38:01.876Z,17.53
2019-02-05T05:39:02.164Z,17.55
2019-02-05T05:40:01.676Z,17.58
2019-02-05T05:41:02.440Z,17.59
2019-02-05T05:42:01.885Z,17.59
2019-02-05T05:43:01.595Z,17.61
2019-02-05T05:44:01.617Z,17.62
2019-02-05T05:45:01.644Z,17.64
2019-02-05T05:46:01.932Z,17.64
2019-02-05T05:47:01.890Z,17.65
2019-02-05T05:48:02.982Z,17.68
2019-02-05T05:49:01.918Z,17.69
2019-02-05T05:50:01.534Z,17.69
2019-02-05T05:51:01.644Z,17.72
2019-02-05T05:52:01.837Z,17.69
2019-02-05T05:53:01.849Z,17.73
2019-02-05T05:54:01.333Z,17.75
2019-02-05T05:55:02.419Z,17.75
2019-02-05T05:56:01.913Z,17.75
2019-02-05T05:57:01.589Z,17.78
2019-02-05T05:58:03.310Z,17.78
2019-02-05T05:59:02.336Z,17.79
2019-02-05T06:00:03.149Z,17.8
2019-02-05T06:01:03.047Z,17.82
2019-02-05T06:02:01.820Z,17.81
2019-02-05T06:03:03.501Z,17.82
2019-02-05T06:04:03.439Z,17.83
2019-02-05T06:05:01.543Z,17.85
2019-02-05T06:06:01.487Z,17.88
2019-02-05T06:07:01.467Z,17.88
2019-02-05T06:08:01.641Z,17.88
2019-02-05T06:09:01.826Z,17.88
2019-02-05T06:10:02.937Z,17.91
2019-02-05T06:11:01.650Z,17.92
2019-02-05T06:12:01.869Z,17.92
2019-02-05T06:13:01.629Z,17.93
2019-02-05T06:14:02.011Z,17.93
2019-02-05T06:15:01.749Z,17.95
2019-02-05T06:16:01.833Z,17.96
2019-02-05T06:17:01.928Z,17.98
2019-02-05T06:18:05.554Z,17.96
2019-02-05T06:19:01.691Z,17.97
2019-02-05T06:20:01.947Z,18.02
2019-02-05T06:21:01.282Z,17.99
2019-02-05T06:22:01.391Z,18
2019-02-05T06:23:01.558Z,17.99
2019-02-05T06:24:01.669Z,18.04
2019-02-05T06:25:02.635Z,18.05
2019-02-05T06:26:01.693Z,18.09
2019-02-05T06:27:01.988Z,18.09
2019-02-05T06:28:01.392Z,18.11
2019-02-05T06:29:01.621Z,18.12
2019-02-05T06:30:02.174Z,18.14
2019-02-05T06:31:01.510Z,18.14
2019-02-05T06:32:01.415Z,18.17
2019-02-05T06:33:03.408Z,18.17
2019-02-05T06:34:01.337Z,18.21
2019-02-05T06:35:01.432Z,18.23
2019-02-05T06:36:01.274Z,18.24
2019-02-05T06:37:01.510Z,18.24
2019-02-05T06:38:01.721Z,18.28
2019-02-05T06:39:01.632Z,18.27
2019-02-05T06:40:02.639Z,18.28
2019-02-05T06:41:01.565Z,18.29
2019-02-05T06:42:02.855Z,18.32
2019-02-05T06:43:01.417Z,18.33
2019-02-05T06:44:01.578Z,18.34
2019-02-05T06:45:01.326Z,18.37
2019-02-05T06:46:01.488Z,18.37
2019-02-05T06:47:01.330Z,18.38
2019-02-05T06:48:01.466Z,18.38
2019-02-05T06:49:01.747Z,18.41
2019-02-05T06:50:01.284Z,18.39
2019-02-05T06:51:01.555Z,18.41
2019-02-05T06:52:01.423Z,18.41
2019-02-05T06:53:01.297Z,18.42
2019-02-05T06:54:01.523Z,18.41
2019-02-05T06:55:02.952Z,18.43
2019-02-05T06:56:01.771Z,18.44
2019-02-05T06:57:01.432Z,18.43
2019-02-05T06:58:01.487Z,18.47
2019-02-05T06:59:01.511Z,18.48
2019-02-05T07:00:01.374Z,18.47
2019-02-05T07:01:01.711Z,18.48
2019-02-05T07:02:01.402Z,18.5
2019-02-05T07:03:01.528Z,18.49
2019-02-05T07:04:02.047Z,18.51
2019-02-05T07:05:01.925Z,18.51
2019-02-05T07:06:01.901Z,18.51
2019-02-05T07:07:02.092Z,18.53
2019-02-05T07:08:01.671Z,18.53
2019-02-05T07:09:01.400Z,18.53
2019-02-05T07:10:03.058Z,18.54
2019-02-05T07:11:01.604Z,18.55
2019-02-05T07:12:01.470Z,18.55
2019-02-05T07:13:03.476Z,18.55
2019-02-05T07:14:01.341Z,18.55
2019-02-05T07:15:02.054Z,18.55
2019-02-05T07:16:02.080Z,18.54
2019-02-05T07:17:02.578Z,18.56
2019-02-05T07:18:01.635Z,18.56
2019-02-05T07:19:01.614Z,18.55
2019-02-05T07:20:01.453Z,18.54
2019-02-05T07:21:01.381Z,18.54
2019-02-05T07:22:01.883Z,18.53
2019-02-05T07:23:02.026Z,18.53
2019-02-05T07:24:01.809Z,18.53
2019-02-05T07:25:04.396Z,18.53
2019-02-05T07:26:01.381Z,18.51
2019-02-05T07:27:01.375Z,18.51
2019-02-05T07:28:01.548Z,18.52
2019-02-05T07:29:02.467Z,18.52
2019-02-05T07:30:01.963Z,18.52
2019-02-05T07:31:01.600Z,18.51
2019-02-05T07:32:02.807Z,18.51
2019-02-05T07:33:02.098Z,18.5
2019-02-05T07:34:01.624Z,18.51
2019-02-05T07:35:01.625Z,18.49
2019-02-05T07:36:01.405Z,18.5
2019-02-05T07:37:01.583Z,18.5
2019-02-05T07:38:01.920Z,18.49
2019-02-05T07:39:03.172Z,18.5
2019-02-05T07:40:02.185Z,18.48
2019-02-05T07:41:02.429Z,18.49
2019-02-05T07:42:01.600Z,18.49
2019-02-05T07:43:01.761Z,18.48
2019-02-05T07:44:01.768Z,18.49
2019-02-05T07:45:01.762Z,18.49
2019-02-05T07:46:02.639Z,18.48
2019-02-05T07:47:01.470Z,18.49
2019-02-05T07:48:01.421Z,18.49
2019-02-05T07:49:01.359Z,18.49
2019-02-05T07:50:01.363Z,18.49
2019-02-05T07:51:01.357Z,18.49
2019-02-05T07:52:01.491Z,18.5
2019-02-05T07:53:01.451Z,18.5
2019-02-05T07:54:01.639Z,18.51
2019-02-05T07:55:01.306Z,18.5
2019-02-05T07:56:01.587Z,18.51
2019-02-05T07:57:01.828Z,18.5
2019-02-05T07:58:01.279Z,18.53
2019-02-05T07:59:10.846Z,18.52
2019-02-05T08:00:01.631Z,18.52
2019-02-05T08:01:03.425Z,18.52
2019-02-05T08:02:03.624Z,18.54
2019-02-05T08:03:01.596Z,18.54
2019-02-05T08:04:01.608Z,18.54
2019-02-05T08:05:02.120Z,18.53
2019-02-05T08:06:01.436Z,18.54
2019-02-05T08:07:01.761Z,18.55
2019-02-05T08:08:02.761Z,18.57
2019-02-05T08:09:01.407Z,18.56
2019-02-05T08:10:01.598Z,18.57
2019-02-05T08:11:01.282Z,18.57
2019-02-05T08:12:01.423Z,18.58
2019-02-05T08:13:01.485Z,18.59
2019-02-05T08:14:01.326Z,18.59
2019-02-05T08:15:03.217Z,18.61
2019-02-05T08:16:01.704Z,18.63
2019-02-05T08:17:02.000Z,18.62
2019-02-05T08:18:01.252Z,18.63
2019-02-05T08:19:01.919Z,18.62
2019-02-05T08:20:01.817Z,18.64
2019-02-05T08:21:01.606Z,18.66
2019-02-05T08:22:03.272Z,18.63
2019-02-05T08:23:01.846Z,18.66
2019-02-05T08:24:01.376Z,18.67
2019-02-05T08:25:01.537Z,18.68
2019-02-05T08:26:01.659Z,18.68
2019-02-05T08:27:01.547Z,18.68
2019-02-05T08:28:01.544Z,18.68
2019-02-05T08:29:02.910Z,18.69
2019-02-05T08:30:01.588Z,18.69
2019-02-05T08:31:01.465Z,18.7
2019-02-05T08:32:01.530Z,18.7
2019-02-05T08:33:01.712Z,18.69
2019-02-05T08:34:03.689Z,18.7
2019-02-05T08:35:01.487Z,18.72
2019-02-05T08:36:01.504Z,18.72
2019-02-05T08:37:01.385Z,18.73
2019-02-05T08:38:01.708Z,18.76
2019-02-05T08:39:01.390Z,18.74
2019-02-05T08:40:01.630Z,18.74
2019-02-05T08:41:02.137Z,18.77
2019-02-05T08:42:01.752Z,18.77
2019-02-05T08:43:01.461Z,18.78
2019-02-05T08:44:02.810Z,18.77
2019-02-05T08:45:01.297Z,18.78
2019-02-05T08:46:01.704Z,18.8
2019-02-05T08:47:01.895Z,18.78
2019-02-05T08:48:01.714Z,18.82
2019-02-05T08:49:01.353Z,18.83
2019-02-05T08:50:01.504Z,18.83
2019-02-05T08:51:02.760Z,18.83
2019-02-05T08:52:01.793Z,18.85
2019-02-05T08:53:02.413Z,18.85
2019-02-05T08:54:01.634Z,18.86
2019-02-05T08:55:01.535Z,18.89
2019-02-05T08:56:01.579Z,18.87
2019-02-05T08:57:01.455Z,18.88
2019-02-05T08:58:02.608Z,18.88
2019-02-05T08:59:02.371Z,18.89
2019-02-05T09:00:01.814Z,18.93
2019-02-05T09:01:01.589Z,18.88
2019-02-05T09:02:01.505Z,18.92
2019-02-05T09:03:01.414Z,18.94
2019-02-05T09:04:01.637Z,18.93
2019-02-05T09:05:01.929Z,18.95
2019-02-05T09:06:01.948Z,18.95
2019-02-05T09:07:01.389Z,18.94
2019-02-05T09:08:03.087Z,18.93
2019-02-05T09:09:01.390Z,18.95
2019-02-05T09:10:01.463Z,18.94
2019-02-05T09:11:01.425Z,18.93
2019-02-05T09:12:01.454Z,18.95
2019-02-05T09:13:03.226Z,18.94
2019-02-05T09:14:14.007Z,18.93
2019-02-05T09:15:01.498Z,18.93
2019-02-05T09:16:01.537Z,18.94
2019-02-05T09:17:01.823Z,18.94
2019-02-05T09:18:01.515Z,18.93
2019-02-05T09:19:01.641Z,18.93
2019-02-05T09:20:02.333Z,18.93
2019-02-05T09:21:01.512Z,18.94
2019-02-05T09:22:01.501Z,18.93
2019-02-05T09:23:01.495Z,18.95
2019-02-05T09:24:01.646Z,18.94
2019-02-05T09:25:01.471Z,18.94
2019-02-05T09:26:01.791Z,18.92
2019-02-05T09:27:01.393Z,18.93
2019-02-05T09:28:03.334Z,18.94
2019-02-05T09:29:01.379Z,18.93
2019-02-05T09:30:01.495Z,18.93
2019-02-05T09:31:01.674Z,18.94
2019-02-05T09:32:01.890Z,18.93
2019-02-05T09:33:01.254Z,18.94
2019-02-05T09:34:01.466Z,18.94
2019-02-05T09:35:02.463Z,18.92
2019-02-05T09:36:01.526Z,18.91
2019-02-05T09:37:01.373Z,18.92
2019-02-05T09:38:01.916Z,18.92
2019-02-05T09:39:01.228Z,18.92
2019-02-05T09:40:01.391Z,18.93
2019-02-05T09:41:01.639Z,18.92
2019-02-05T09:42:01.934Z,18.91
2019-02-05T09:43:04.224Z,18.92
2019-02-05T09:44:01.379Z,18.88
2019-02-05T09:45:01.526Z,18.89
2019-02-05T09:46:01.346Z,18.88
2019-02-05T09:47:01.446Z,18.88
2019-02-05T09:48:01.393Z,18.88
2019-02-05T09:49:01.384Z,18.87
2019-02-05T09:50:02.980Z,18.89
2019-02-05T09:51:01.675Z,18.86
2019-02-05T09:52:01.841Z,18.88
2019-02-05T09:53:01.516Z,18.85
2019-02-05T09:54:01.370Z,18.86
2019-02-05T09:55:01.338Z,18.87
2019-02-05T09:56:01.473Z,18.86
2019-02-05T09:57:03.132Z,18.85
2019-02-05T09:58:01.997Z,18.87
2019-02-05T09:59:01.415Z,18.87
2019-02-05T10:00:01.376Z,18.84
2019-02-05T10:01:01.593Z,18.85
2019-02-05T10:02:01.407Z,18.85
2019-02-05T10:03:01.372Z,18.85
2019-02-05T10:04:02.415Z,18.85
2019-02-05T10:05:01.552Z,18.84
2019-02-05T10:06:01.553Z,18.85
2019-02-05T10:07:01.844Z,18.86
2019-02-05T10:08:01.820Z,18.84
2019-02-05T10:09:01.348Z,18.84
2019-02-05T10:10:01.899Z,18.82
2019-02-05T10:11:01.664Z,18.85
2019-02-05T10:12:02.728Z,18.84
2019-02-05T10:13:01.635Z,18.84
2019-02-05T10:14:01.505Z,18.83
2019-02-05T10:15:01.613Z,18.82
2019-02-05T10:16:01.793Z,18.84
2019-02-05T10:17:01.832Z,18.83
2019-02-05T10:18:01.525Z,18.84
2019-02-05T10:19:02.777Z,18.82
2019-02-05T10:20:01.896Z,18.84
2019-02-05T10:21:01.400Z,18.83
2019-02-05T10:22:01.397Z,18.82
2019-02-05T10:23:01.448Z,18.82
2019-02-05T10:24:01.417Z,18.84
2019-02-05T10:25:01.819Z,18.84
2019-02-05T10:26:01.542Z,18.84
2019-02-05T10:27:01.943Z,18.84
2019-02-05T10:28:01.510Z,18.83
2019-02-05T10:29:01.623Z,18.84
2019-02-05T10:30:01.426Z,18.82
2019-02-05T10:31:01.455Z,18.84
2019-02-05T10:32:01.254Z,18.84
2019-02-05T10:33:01.726Z,18.84
2019-02-05T10:34:02.782Z,18.84
2019-02-05T10:35:01.718Z,18.83
2019-02-05T10:36:01.878Z,18.83
2019-02-05T10:37:01.678Z,18.83
2019-02-05T10:38:01.589Z,18.84
2019-02-05T10:39:01.448Z,18.84
2019-02-05T10:40:01.531Z,18.83
2019-02-05T10:41:02.159Z,18.84
2019-02-05T10:42:01.612Z,18.84
2019-02-05T10:43:02.015Z,18.82
2019-02-05T10:44:03.142Z,18.83
2019-02-05T10:45:01.542Z,18.85
2019-02-05T10:46:01.959Z,18.83
2019-02-05T10:47:01.547Z,18.82
2019-02-05T10:48:01.482Z,18.83
2019-02-05T10:49:04.939Z,18.84
2019-02-05T10:50:01.521Z,18.81
2019-02-05T10:51:01.438Z,18.83
2019-02-05T10:52:01.938Z,18.82
2019-02-05T10:53:01.470Z,18.83
2019-02-05T10:54:01.342Z,18.84
2019-02-05T10:55:03.355Z,18.83
2019-02-05T10:56:03.160Z,18.84
2019-02-05T10:57:01.811Z,18.84
2019-02-05T10:58:01.356Z,18.85
2019-02-05T10:59:01.760Z,18.84
2019-02-05T11:00:09.580Z,18.84
2019-02-05T11:01:01.400Z,18.84
2019-02-05T11:02:02.421Z,18.82
2019-02-05T11:03:01.680Z,18.81
2019-02-05T11:04:01.822Z,18.83
2019-02-05T11:05:01.365Z,18.82
2019-02-05T11:06:01.614Z,18.82
2019-02-05T11:07:01.596Z,18.84
2019-02-05T11:08:01.695Z,18.81
2019-02-05T11:09:01.320Z,18.83
2019-02-05T11:10:01.601Z,18.82
2019-02-05T11:11:04.482Z,18.84
2019-02-05T11:12:02.352Z,18.85
2019-02-05T11:13:01.714Z,18.83
2019-02-05T11:14:01.416Z,18.83
2019-02-05T11:15:01.863Z,18.83
2019-02-05T11:16:02.045Z,18.84
2019-02-05T11:17:01.819Z,18.83
2019-02-05T11:18:03.760Z,18.85
2019-02-05T11:19:01.389Z,18.83
2019-02-05T11:20:01.478Z,18.82
2019-02-05T11:21:04.900Z,18.84
2019-02-05T11:22:01.766Z,18.84
2019-02-05T11:23:01.479Z,18.83
2019-02-05T11:24:01.152Z,18.83
2019-02-05T11:25:01.591Z,18.84
2019-02-05T11:26:01.416Z,18.83
2019-02-05T11:27:01.139Z,18.82
2019-02-05T11:28:01.732Z,18.85
2019-02-05T11:29:01.744Z,18.85
2019-02-05T11:30:01.455Z,18.86
2019-02-05T11:31:01.838Z,18.88
2019-02-05T11:32:01.233Z,18.87
2019-02-05T11:33:03.106Z,18.88
2019-02-05T11:34:01.464Z,18.89
2019-02-05T11:35:02.124Z,18.91
2019-02-05T11:36:01.578Z,18.93
2019-02-05T11:37:01.364Z,18.94
2019-02-05T11:38:01.526Z,18.94
2019-02-05T11:39:01.215Z,18.97
2019-02-05T11:40:02.849Z,18.99
2019-02-05T11:41:01.618Z,18.99
2019-02-05T11:42:01.255Z,18.99
2019-02-05T11:43:01.558Z,19.01
2019-02-05T11:44:01.788Z,19.02
2019-02-05T11:45:02.461Z,19.05
2019-02-05T11:46:01.646Z,19.05
2019-02-05T11:47:04.360Z,19.07
2019-02-05T11:48:01.914Z,19.08
2019-02-05T11:49:01.581Z,19.08
2019-02-05T11:50:02.410Z,19.1
2019-02-05T11:51:01.245Z,19.09
2019-02-05T11:52:01.970Z,19.12
2019-02-05T11:53:01.055Z,19.11
2019-02-05T11:54:01.387Z,19.13
2019-02-05T11:55:03.469Z,19.15
2019-02-05T11:56:02.108Z,19.15
2019-02-05T11:57:01.474Z,19.15
2019-02-05T11:58:01.862Z,19.15
2019-02-05T11:59:01.603Z,19.14
2019-02-05T12:00:01.654Z,19.15
2019-02-05T12:01:02.172Z,19.17
2019-02-05T12:02:02.730Z,19.18
2019-02-05T12:03:01.879Z,19.17
2019-02-05T12:04:01.974Z,19.17
2019-02-05T12:05:02.513Z,19.2
2019-02-05T12:06:01.731Z,19.22
2019-02-05T12:07:01.998Z,19.2
2019-02-05T12:08:03.127Z,19.21
2019-02-05T12:09:01.270Z,19.21
2019-02-05T12:10:03.065Z,19.23
2019-02-05T12:11:02.548Z,19.22
2019-02-05T12:12:01.523Z,19.26
2019-02-05T12:13:01.414Z,19.25
2019-02-05T12:14:02.110Z,19.25
2019-02-05T12:15:01.203Z,19.26
2019-02-05T12:16:02.167Z,19.28
2019-02-05T12:17:02.807Z,19.29
2019-02-05T12:18:01.860Z,19.28
2019-02-05T12:19:03.297Z,19.29
2019-02-05T12:20:01.273Z,19.29
2019-02-05T12:21:01.474Z,19.31
2019-02-05T12:22:01.397Z,19.31
2019-02-05T12:23:01.586Z,19.33
2019-02-05T12:24:02.858Z,19.32
2019-02-05T12:25:01.430Z,19.32
2019-02-05T12:26:01.991Z,19.35
2019-02-05T12:27:01.607Z,19.35
2019-02-05T12:28:01.352Z,19.36
2019-02-05T12:29:01.163Z,19.37
2019-02-05T12:30:01.945Z,19.38
2019-02-05T12:31:02.430Z,19.37
2019-02-05T12:32:02.246Z,19.39
2019-02-05T12:33:02.447Z,19.41
2019-02-05T12:34:01.657Z,19.41
2019-02-05T12:35:01.780Z,19.42
2019-02-05T12:36:01.455Z,19.44
2019-02-05T12:37:01.427Z,19.42
2019-02-05T12:38:01.730Z,19.42
2019-02-05T12:39:03.274Z,19.43
2019-02-05T12:40:01.860Z,19.43
2019-02-05T12:41:01.403Z,19.44
2019-02-05T12:42:03.047Z,19.44
2019-02-05T12:43:01.410Z,19.44
2019-02-05T12:44:01.948Z,19.45
2019-02-05T12:45:01.256Z,19.45
2019-02-05T12:46:01.924Z,19.43
2019-02-05T12:47:01.469Z,19.46
2019-02-05T12:48:01.567Z,19.45
2019-02-05T12:49:01.779Z,19.43
2019-02-05T12:50:01.704Z,19.45
2019-02-05T12:51:01.742Z,19.45
2019-02-05T12:52:01.394Z,19.45
2019-02-05T12:53:01.238Z,19.47
2019-02-05T12:54:02.769Z,19.45